Time;durP1;ratioP1;P1;durP2;ratioP2;P2;SDS_P1;SDS_P2;PMS_P1;PMS_P2;Temp;Humidity;BMP_temperature;BMP_pressure;BME280_temperature;BME280_humidity;BME280_pressure;Samples;Min_cycle;Max_cycle;Signal;HPM_P1;HPM_P2
2021/05/25 00:01:20;;;;;;;;;;;;;;;13.71;73.25;99292.97;1707963;84;20185;-86
2021/05/25 00:03:46;;;;;;;;;;;;;;;13.66;72.92;99290.95;1707674;84;20173;-86
2021/05/25 00:06:13;;;;;;;;;;;;;;;13.67;73.61;99293.14;1689171;84;20173;-86
2021/05/25 00:08:39;;;;;;;;;;;;;;;13.67;72.15;99297.05;1697784;84;20254;-87
2021/05/25 00:11:05;;;;;;;;;;;;;;;13.66;72.75;99300.09;1703167;84;20130;-86
2021/05/25 00:13:32;;;;;;;;;;;;;;;13.65;73.65;99297.56;1707521;84;20205;-84
2021/05/25 00:15:58;;;;;;;;;;;;;;;13.65;72.96;99294.95;1702698;84;20185;-85
2021/05/25 00:18:24;;;;;;;;;;;;;;;13.62;73.79;99287.20;1707140;84;20208;-86
2021/05/25 00:20:50;;;;;;;;;;;;;;;13.61;73.84;99281.14;1690492;84;20183;-83
2021/05/25 00:23:17;;;;;;;;;;;;;;;13.57;74.12;99277.35;1674452;85;20705;-84
2021/05/25 00:25:44;;;;;;;;;;;;;;;13.56;73.20;99272.59;1677145;86;20159;-86
2021/05/25 00:28:10;;;;;;;;;;;;;;;13.52;74.84;99274.45;1683642;85;20152;-86
2021/05/25 00:30:36;;;;;;;;;;;;;;;13.52;74.12;99277.52;1705983;84;20102;-87
2021/05/25 00:33:03;;;;;;;;;;;;;;;13.51;70.72;99277.98;1696691;84;20224;-87
2021/05/25 00:35:34;;;;;;;;;;;;;;;13.49;71.88;99258.91;1693923;84;20673;-86
2021/05/25 00:37:57;;;;;;;;;;;;;;;13.46;73.51;99244.63;1700023;83;20165;-85
2021/05/25 00:40:23;;;;;;;;;;;;;;;13.43;74.84;99254.32;1707701;82;20185;-87
2021/05/25 00:42:49;;;;;;;;;;;;;;;13.44;73.37;99265.19;1707784;84;20218;-86
2021/05/25 00:45:16;;;;;;;;;;;;;;;13.45;71.71;99265.56;1692049;84;20183;-86
2021/05/25 00:47:43;;;;;;;;;;;;;;;13.44;71.23;99267.80;1679655;86;20139;-86
2021/05/25 00:50:12;;;;;;;;;;;;;;;13.45;74.41;99259.03;1688594;84;20213;-86
2021/05/25 00:52:41;;;;;;;;;;;;;;;13.44;75.00;99240.38;1706483;84;20229;-87
2021/05/25 00:55:08;;;;;;;;;;;;;;;13.49;73.85;99233.24;1706224;84;20157;-86
2021/05/25 00:57:35;;;;;;;;;;;;;;;13.49;74.94;99232.78;1705949;84;20205;-86
2021/05/25 01:00:05;;;;;;;;;;;;;;;13.49;72.12;99235.39;1706459;84;20173;-87
2021/05/25 01:02:33;;;;;;;;;;;;;;;13.53;72.84;99245.29;1691842;84;20161;-87
2021/05/25 01:05:00;;;;;;;;;;;;;;;13.55;74.03;99264.38;1686970;83;20110;-87
2021/05/25 01:07:26;;;;;;;;;;;;;;;13.61;73.74;99267.20;1714059;82;20143;-85
2021/05/25 01:09:54;;;;;;;;;;;;;;;13.63;72.78;99275.87;1720273;82;20549;-85
2021/05/25 01:12:22;;;;;;;;;;;;;;;13.64;73.27;99271.02;1744091;82;20107;-85
2021/05/25 01:14:53;;;;;;;;;;;;;;;13.69;73.71;99283.03;1744352;82;20246;-86
2021/05/25 01:17:17;;;;;;;;;;;;;;;13.72;73.12;99280.75;1767391;81;20182;-85
2021/05/25 01:19:43;;;;;;;;;;;;;;;13.79;73.79;99268.34;1749454;82;20146;-87
2021/05/25 01:22:09;;;;;;;;;;;;;;;13.83;72.96;99274.70;1752253;82;20143;-85
2021/05/25 01:24:35;;;;;;;;;;;;;;;13.86;72.35;99277.66;1759606;82;20143;-86
2021/05/25 01:27:07;;;;;;;;;;;;;;;13.85;72.37;99289.03;1717675;84;20184;-86
2021/05/25 01:29:37;;;;;;;;;;;;;;;13.80;73.65;99277.87;1732750;82;20188;-86
2021/05/25 01:32:05;;;;;;;;;;;;;;;13.82;73.97;99282.59;1739609;82;20196;-86
2021/05/25 01:34:31;;;;;;;;;;;;;;;13.83;72.71;99283.84;1717343;84;20204;-87
2021/05/25 01:36:58;;;;;;;;;;;;;;;13.82;74.31;99279.98;1717412;84;20183;-87
2021/05/25 01:39:24;;;;;;;;;;;;;;;13.79;74.18;99274.88;1717478;82;20180;-86
2021/05/25 01:41:54;;;;;;;;;;;;;;;13.75;74.40;99268.02;1738471;82;20183;-86
2021/05/25 01:44:21;;;;;;;;;;;;;;;13.78;72.09;99274.46;1751068;82;20173;-85
2021/05/25 01:46:48;;;;;;;;;;;;;;;13.75;73.83;99272.81;1746922;82;20182;-87
2021/05/25 01:49:15;;;;;;;;;;;;;;;13.75;73.97;99262.37;1746777;82;20235;-86
2021/05/25 01:51:50;;;;;;;;;;;;;;;13.78;71.90;99261.39;1734453;82;20197;-86
2021/05/25 01:54:17;;;;;;;;;;;;;;;13.79;73.41;99264.42;1734127;83;20132;-87
2021/05/25 01:56:43;;;;;;;;;;;;;;;13.80;71.54;99243.91;1718495;82;20149;-86
2021/05/25 01:59:10;;;;;;;;;;;;;;;13.74;74.75;99248.89;1730239;83;20152;-86
2021/05/25 02:01:37;;;;;;;;;;;;;;;13.77;72.70;99254.45;1740274;82;20147;-86
2021/05/25 02:04:04;;;;;;;;;;;;;;;13.79;74.64;99252.66;1737677;82;20182;-86
2021/05/25 02:06:30;;;;;;;;;;;;;;;13.82;74.60;99252.54;1751895;81;20263;-85
2021/05/25 02:08:57;;;;;;;;;;;;;;;13.84;73.03;99272.47;1769034;81;20092;-86
2021/05/25 02:11:24;;;;;;;;;;;;;;;13.84;73.91;99262.02;1766076;81;20164;-84
2021/05/25 02:13:50;;;;;;;;;;;;;;;13.90;72.38;99269.64;1766384;81;20157;-86
2021/05/25 02:16:18;;;;;;;;;;;;;;;13.95;73.84;99251.20;1766198;81;20205;-86
2021/05/25 02:18:47;;;;;;;;;;;;;;;14.02;72.81;99246.13;1733445;81;20185;-86
2021/05/25 02:21:16;;;;;;;;;;;;;;;14.01;74.56;99256.20;1730261;83;20169;-86
2021/05/25 02:23:43;;;;;;;;;;;;;;;14.05;74.04;99255.64;1730518;83;20142;-85
2021/05/25 02:26:09;;;;;;;;;;;;;;;14.12;73.45;99243.59;1709605;83;20172;-86
2021/05/25 02:28:36;;;;;;;;;;;;;;;14.18;73.65;99250.80;1703268;83;20165;-85
2021/05/25 02:31:03;;;;;;;;;;;;;;;14.22;73.55;99274.14;1737829;81;20207;-86
2021/05/25 02:33:30;;;;;;;;;;;;;;;14.24;73.65;99291.94;1765143;81;20196;-84
2021/05/25 02:35:58;;;;;;;;;;;;;;;14.28;73.72;99297.91;1729774;83;20173;-85
2021/05/25 02:38:27;;;;;;;;;;;;;;;14.31;73.37;99279.51;1707841;83;20148;-86
2021/05/25 02:40:53;;;;;;;;;;;;;;;14.33;73.16;99285.06;1728433;83;20141;-86
2021/05/25 02:43:21;;;;;;;;;;;;;;;14.31;72.30;99295.20;1749495;81;20281;-86
2021/05/25 02:45:48;;;;;;;;;;;;;;;14.11;73.11;99268.02;1745639;81;20173;-86
2021/05/25 02:48:14;;;;;;;;;;;;;;;14.23;72.82;99292.86;1729652;82;20157;-86
2021/05/25 02:50:41;;;;;;;;;;;;;;;14.22;73.93;99304.68;1709274;83;20209;-87
2021/05/25 02:53:09;;;;;;;;;;;;;;;14.21;72.53;99309.06;1729439;83;20178;-86
2021/05/25 02:55:38;;;;;;;;;;;;;;;14.19;74.09;99316.11;1715648;83;20191;-85
2021/05/25 02:58:06;;;;;;;;;;;;;;;14.16;73.74;99321.44;1708556;83;20156;-85
2021/05/25 03:00:35;;;;;;;;;;;;;;;14.15;70.54;99323.67;1721028;83;20172;-85
2021/05/25 03:03:02;;;;;;;;;;;;;;;14.10;72.95;99318.59;1700000;85;20180;-86
2021/05/25 03:05:29;;;;;;;;;;;;;;;14.08;72.85;99308.64;1700800;83;20244;-83
2021/05/25 03:07:57;;;;;;;;;;;;;;;14.08;71.57;99307.33;1710142;83;20156;-85
2021/05/25 03:10:27;;;;;;;;;;;;;;;14.05;72.45;99303.53;1725904;81;20138;-89
2021/05/25 03:12:54;;;;;;;;;;;;;;;14.03;73.67;99305.35;1750058;81;20703;-84
2021/05/25 03:15:23;;;;;;;;;;;;;;;13.99;74.24;99302.45;1744910;81;20746;-88
2021/05/25 03:17:50;;;;;;;;;;;;;;;13.97;75.23;99302.12;1752206;81;20174;-85
2021/05/25 03:20:16;;;;;;;;;;;;;;;13.97;76.18;99300.34;1743239;82;20174;-86
2021/05/25 03:22:43;;;;;;;;;;;;;;;13.98;75.82;99290.27;1736336;82;20147;-86
2021/05/25 03:25:11;;;;;;;;;;;;;;;14.00;75.15;99294.99;1747143;82;20160;-86
2021/05/25 03:27:38;;;;;;;;;;;;;;;14.06;74.69;99293.92;1728884;83;20182;-85
2021/05/25 03:30:10;;;;;;;;;;;;;;;14.10;76.14;99287.67;1739193;83;20183;-85
2021/05/25 03:32:37;;;;;;;;;;;;;;;14.15;72.67;99280.53;1750379;82;20213;-86
2021/05/25 03:35:06;;;;;;;;;;;;;;;14.18;75.69;99282.17;1752640;81;20166;-86
2021/05/25 03:37:33;;;;;;;;;;;;;;;14.23;75.06;99276.33;1752439;82;20146;-86
2021/05/25 03:40:00;;;;;;;;;;;;;;;14.26;74.99;99278.81;1744310;82;20139;-87
2021/05/25 03:42:26;;;;;;;;;;;;;;;14.28;75.22;99276.56;1738085;83;20202;-84
2021/05/25 03:44:52;;;;;;;;;;;;;;;14.33;75.25;99269.37;1740283;79;20214;-86
2021/05/25 03:47:19;;;;;;;;;;;;;;;14.38;72.61;99243.50;1730874;82;20148;-85
2021/05/25 03:49:46;;;;;;;;;;;;;;;14.38;74.62;99180.27;1724626;82;20145;-85
2021/05/25 03:52:14;;;;;;;;;;;;;;;14.43;76.35;99101.17;1742133;82;20163;-86
2021/05/25 03:54:51;;;;;;;;;;;;;;;14.47;76.31;99032.13;1746497;82;20248;-86
2021/05/25 03:58:46;;;;;;;;;;;;;;;14.40;78.65;99050.28;1750112;81;20698;-85
2021/05/25 03:59:37;;;;;;;;;;;;;;;14.21;80.07;99099.88;1748079;82;20157;-85
2021/05/25 04:02:04;;;;;;;;;;;;;;;13.88;80.58;99129.02;1735267;82;20183;-85
2021/05/25 04:04:31;;;;;;;;;;;;;;;14.01;77.68;99091.98;1748193;82;20631;-84
2021/05/25 04:06:57;;;;;;;;;;;;;;;14.08;76.40;99076.44;1745239;82;20185;-85
2021/05/25 04:09:23;;;;;;;;;;;;;;;14.09;77.87;99117.37;1751637;82;20194;-84
2021/05/25 04:11:49;;;;;;;;;;;;;;;14.15;78.70;99138.50;1718343;81;20159;-86
2021/05/25 04:14:16;;;;;;;;;;;;;;;14.19;77.73;99141.39;1726250;83;20185;-85
2021/05/25 04:16:42;;;;;;;;;;;;;;;14.28;77.88;99139.70;1737710;83;20537;-83
2021/05/25 04:19:08;;;;;;;;;;;;;;;14.38;77.64;99142.81;1737376;83;20505;-82
2021/05/25 04:21:35;;;;;;;;;;;;;;;14.46;76.70;99140.73;1715966;83;20176;-86
2021/05/25 04:24:02;;;;;;;;;;;;;;;14.52;76.06;99136.12;1759013;81;20109;-87
2021/05/25 04:26:29;;;;;;;;;;;;;;;14.62;75.84;99145.80;1731389;83;20157;-85
2021/05/25 04:28:55;;;;;;;;;;;;;;;14.70;75.22;99142.84;1733606;83;20161;-84
2021/05/25 04:31:22;;;;;;;;;;;;;;;14.76;75.32;99133.42;1733895;83;20234;-83
2021/05/25 04:33:48;;;;;;;;;;;;;;;14.83;75.50;99119.17;1729920;83;20151;-86
2021/05/25 04:36:17;;;;;;;;;;;;;;;14.84;75.23;99135.29;1737980;83;20180;-86
2021/05/25 04:38:44;;;;;;;;;;;;;;;14.93;74.20;99137.97;1741434;83;20185;-86
2021/05/25 04:41:10;;;;;;;;;;;;;;;14.94;73.66;99125.72;1727524;83;20181;-86
2021/05/25 04:43:37;;;;;;;;;;;;;;;14.94;74.10;99114.81;1736579;83;20166;-85
2021/05/25 04:46:03;;;;;;;;;;;;;;;15.01;73.75;99106.23;1740559;83;20190;-85
2021/05/25 04:48:29;;;;;;;;;;;;;;;15.10;73.34;99103.23;1742303;83;20186;-85
2021/05/25 04:50:56;;;;;;;;;;;;;;;15.12;73.31;99114.48;1722009;83;20199;-86
2021/05/25 04:53:22;;;;;;;;;;;;;;;15.17;73.14;99126.05;1712577;83;20144;-86
2021/05/25 04:55:48;;;;;;;;;;;;;;;15.24;72.75;99123.54;1736599;82;20167;-85
2021/05/25 04:58:15;;;;;;;;;;;;;;;15.33;72.34;99124.45;1742087;83;20218;-85
2021/05/25 05:00:41;;;;;;;;;;;;;;;15.39;71.98;99122.88;1739412;83;20197;-85
2021/05/25 05:03:08;;;;;;;;;;;;;;;15.41;72.32;99124.13;1712592;84;20185;-86
2021/05/25 05:05:34;;;;;;;;;;;;;;;15.50;71.52;99130.27;1718536;83;20255;-84
2021/05/25 05:08:00;;;;;;;;;;;;;;;15.57;72.04;99132.99;1737034;81;20232;-84
2021/05/25 05:10:27;;;;;;;;;;;;;;;15.69;71.30;99131.59;1761404;80;20169;-85
2021/05/25 05:12:53;;;;;;;;;;;;;;;15.74;71.55;99130.09;1717763;82;20152;-85
2021/05/25 05:15:19;;;;;;;;;;;;;;;15.84;71.03;99127.47;1741153;82;20221;-85
2021/05/25 05:17:47;;;;;;;;;;;;;;;15.93;70.90;99121.77;1735273;83;20171;-84
2021/05/25 05:20:14;;;;;;;;;;;;;;;16.01;70.84;99114.86;1757744;81;20210;-86
2021/05/25 05:22:41;;;;;;;;;;;;;;;16.12;70.28;99116.53;1742230;82;20186;-86
2021/05/25 05:25:09;;;;;;;;;;;;;;;16.21;69.61;99117.85;1739277;82;20192;-84
2021/05/25 05:27:35;;;;;;;;;;;;;;;16.30;70.12;99116.11;1732001;82;20211;-84
2021/05/25 05:30:02;;;;;;;;;;;;;;;16.43;69.42;99114.60;1736005;83;20111;-84
2021/05/25 05:32:28;;;;;;;;;;;;;;;16.49;69.53;99104.24;1741966;82;20189;-86
2021/05/25 05:34:54;;;;;;;;;;;;;;;16.58;68.80;99100.33;1741175;82;20150;-85
2021/05/25 05:37:20;;;;;;;;;;;;;;;16.60;69.08;99110.30;1728942;82;20178;-85
2021/05/25 05:39:47;;;;;;;;;;;;;;;16.61;68.73;99108.91;1728336;83;20172;-85
2021/05/25 05:42:13;;;;;;;;;;;;;;;16.68;68.22;99102.88;1741730;82;20189;-86
2021/05/25 05:44:39;;;;;;;;;;;;;;;16.75;68.06;99104.73;1744135;80;20091;-85
2021/05/25 05:47:06;;;;;;;;;;;;;;;16.79;67.86;99111.08;1736881;77;20173;-86
2021/05/25 05:49:32;;;;;;;;;;;;;;;16.85;67.89;99117.36;1736397;81;20171;-85
2021/05/25 05:51:58;;;;;;;;;;;;;;;16.95;67.12;99101.99;1722153;77;20198;-86
2021/05/25 05:54:24;;;;;;;;;;;;;;;16.95;67.09;99100.68;1742780;82;20099;-87
2021/05/25 05:59:27;;;;;;;;;;;;;;;17.05;67.29;99115.47;1659427;84;20241;-87
2021/05/25 06:01:54;;;;;;;;;;;;;;;17.16;67.03;99110.53;1659699;84;20131;-85
2021/05/25 06:04:20;;;;;;;;;;;;;;;17.13;66.84;99102.82;1682655;82;20168;-88
2021/05/25 06:06:46;;;;;;;;;;;;;;;17.18;66.46;99101.26;1720027;84;20248;-87
2021/05/25 06:09:13;;;;;;;;;;;;;;;17.15;67.60;99111.47;1720215;84;20129;-84
2021/05/25 06:11:39;;;;;;;;;;;;;;;17.14;68.29;99100.56;1708636;83;20170;-86
2021/05/25 06:14:06;;;;;;;;;;;;;;;17.12;68.13;99090.60;1714202;81;20174;-87
2021/05/25 06:16:34;;;;;;;;;;;;;;;17.10;69.03;99089.83;1719450;83;20212;-86
2021/05/25 06:19:01;;;;;;;;;;;;;;;17.07;69.53;99097.41;1719044;83;20169;-86
2021/05/25 06:21:27;;;;;;;;;;;;;;;17.08;69.46;99099.57;1709462;83;20195;-85
2021/05/25 06:23:53;;;;;;;;;;;;;;;17.14;68.79;99103.19;1699826;83;20149;-87
2021/05/25 06:26:21;;;;;;;;;;;;;;;17.21;68.88;99106.33;1708852;83;20192;-86
2021/05/25 06:28:47;;;;;;;;;;;;;;;17.28;69.18;99094.11;1714891;83;20230;-85
2021/05/25 06:31:14;;;;;;;;;;;;;;;17.37;68.87;99097.19;1703960;83;20713;-86
2021/05/25 06:33:40;;;;;;;;;;;;;;;17.44;69.14;99097.25;1713279;82;20538;-86
2021/05/25 06:36:07;;;;;;;;;;;;;;;17.51;68.07;99097.33;1706319;84;20167;-86
2021/05/25 06:38:33;;;;;;;;;;;;;;;17.62;68.24;99099.36;1716749;84;20216;-85
2021/05/25 06:41:00;;;;;;;;;;;;;;;17.66;68.85;99096.47;1689707;83;20252;-86
2021/05/25 06:43:26;;;;;;;;;;;;;;;17.74;68.31;99096.06;1683259;85;20222;-86
2021/05/25 06:45:53;;;;;;;;;;;;;;;17.87;68.00;99089.23;1689046;85;20149;-87
2021/05/25 06:48:19;;;;;;;;;;;;;;;17.95;66.81;99091.45;1689089;85;20196;-85
2021/05/25 06:50:45;;;;;;;;;;;;;;;18.09;67.70;99095.95;1686705;85;20186;-86
2021/05/25 06:53:12;;;;;;;;;;;;;;;18.27;67.33;99095.38;1687211;85;20215;-86
2021/05/25 06:55:38;;;;;;;;;;;;;;;18.40;67.44;99088.93;1679424;85;20172;-86
2021/05/25 06:58:04;;;;;;;;;;;;;;;18.57;67.49;99087.97;1677588;85;20194;-86
2021/05/25 07:00:30;;;;;;;;;;;;;;;18.58;66.01;99066.83;1680455;85;20713;-87
2021/05/25 07:02:57;;;;;;;;;;;;;;;18.76;65.54;99085.96;1679585;85;20224;-86
2021/05/25 07:05:23;;;;;;;;;;;;;;;18.83;65.47;99074.14;1694376;82;20307;-84
2021/05/25 07:07:49;;;;;;;;;;;;;;;18.88;64.82;99071.25;1680366;83;20227;-83
2021/05/25 07:10:16;;;;;;;;;;;;;;;18.96;64.46;99068.13;1699062;83;20196;-86
2021/05/25 07:12:42;;;;;;;;;;;;;;;19.06;64.51;99074.58;1692763;83;20624;-86
2021/05/25 07:15:09;;;;;;;;;;;;;;;19.14;63.60;99072.77;1691335;83;20176;-87
2021/05/25 07:17:35;;;;;;;;;;;;;;;19.21;63.87;99083.32;1709653;84;20153;-86
2021/05/25 07:20:02;;;;;;;;;;;;;;;19.30;63.82;99075.31;1727352;83;20189;-86
2021/05/25 07:22:29;;;;;;;;;;;;;;;19.42;63.69;99070.63;1738519;83;20214;-87
2021/05/25 07:24:55;;;;;;;;;;;;;;;19.53;62.90;99060.72;1739115;83;20175;-86
2021/05/25 07:27:21;;;;;;;;;;;;;;;19.66;63.20;99062.49;1738887;81;20561;-86
2021/05/25 07:29:47;;;;;;;;;;;;;;;19.75;62.07;99062.88;1716509;81;20218;-87
2021/05/25 07:32:14;;;;;;;;;;;;;;;19.76;61.50;99054.04;1736391;83;20202;-86
2021/05/25 07:34:40;;;;;;;;;;;;;;;19.84;61.47;99055.23;1723985;83;20173;-85
2021/05/25 07:37:06;;;;;;;;;;;;;;;19.99;61.52;99048.11;1749661;81;20199;-86
2021/05/25 07:39:32;;;;;;;;;;;;;;;20.11;60.56;99048.27;1739230;83;20149;-86
2021/05/25 07:41:59;;;;;;;;;;;;;;;20.17;59.68;99056.63;1726569;82;20164;-86
2021/05/25 07:44:25;;;;;;;;;;;;;;;20.29;60.89;99054.14;1694783;83;20200;-85
2021/05/25 07:46:52;;;;;;;;;;;;;;;20.37;60.40;99052.70;1671087;83;20194;-86
2021/05/25 07:49:19;;;;;;;;;;;;;;;20.42;59.58;99051.91;1683140;83;20204;-86
2021/05/25 07:51:45;;;;;;;;;;;;;;;20.52;60.32;99060.06;1702340;82;20166;-86
2021/05/25 07:54:12;;;;;;;;;;;;;;;20.62;59.07;99060.33;1707716;83;20289;-85
2021/05/25 07:56:38;;;;;;;;;;;;;;;20.66;59.48;99048.61;1700348;83;20177;-86
2021/05/25 07:59:04;;;;;;;;;;;;;;;20.79;59.38;99048.61;1722382;83;20152;-86
2021/05/25 08:01:31;;;;;;;;;;;;;;;20.88;58.87;99043.19;1689351;83;20181;-86
2021/05/25 08:03:57;;;;;;;;;;;;;;;20.92;58.52;99042.87;1691059;83;20194;-86
2021/05/25 08:06:23;;;;;;;;;;;;;;;21.08;59.80;99045.78;1718046;82;20473;-85
2021/05/25 08:08:49;;;;;;;;;;;;;;;21.25;59.39;99044.98;1714385;82;20376;-86
2021/05/25 08:11:16;;;;;;;;;;;;;;;21.43;59.88;99046.84;1723680;82;20168;-86
2021/05/25 08:13:44;;;;;;;;;;;;;;;21.63;59.30;99047.22;1722070;83;20216;-85
2021/05/25 08:16:13;;;;;;;;;;;;;;;21.78;59.36;99043.94;1701576;82;20199;-85
2021/05/25 08:21:07;;;;;;;;;;;;;;;21.99;57.41;99051.65;1723235;83;20185;-85
2021/05/25 08:23:33;;;;;;;;;;;;;;;22.11;58.07;99045.94;1718467;83;20455;-86
2021/05/25 08:26:03;;;;;;;;;;;;;;;22.27;58.64;99044.36;1715228;83;20174;-84
2021/05/25 08:28:28;;;;;;;;;;;;;;;22.37;56.69;99046.68;1742247;82;20194;-84
2021/05/25 08:30:54;;;;;;;;;;;;;;;22.51;56.82;99048.78;1720486;82;20215;-85
2021/05/25 08:33:21;;;;;;;;;;;;;;;22.67;57.78;99051.13;1689251;83;20201;-84
2021/05/25 08:35:48;;;;;;;;;;;;;;;22.80;56.54;99040.80;1721014;82;20177;-85
2021/05/25 08:38:15;;;;;;;;;;;;;;;22.92;57.17;99033.70;1717627;83;20636;-84
2021/05/25 08:40:43;;;;;;;;;;;;;;;23.08;55.52;99032.53;1719726;82;20205;-85
2021/05/25 08:43:10;;;;;;;;;;;;;;;23.19;54.39;99032.55;1711274;83;20553;-85
2021/05/25 08:45:36;;;;;;;;;;;;;;;23.27;53.90;99033.27;1730717;82;20161;-85
2021/05/25 08:48:03;;;;;;;;;;;;;;;23.26;53.50;99033.77;1708432;82;20258;-85
2021/05/25 08:50:30;;;;;;;;;;;;;;;23.38;53.92;99033.28;1718257;83;20192;-84
2021/05/25 08:53:03;;;;;;;;;;;;;;;23.53;54.80;99036.02;1717141;83;20254;-84
2021/05/25 08:55:30;;;;;;;;;;;;;;;23.64;51.58;99036.51;1721308;82;20186;-84
2021/05/25 08:57:57;;;;;;;;;;;;;;;23.68;53.02;99026.00;1721464;82;20206;-85
2021/05/25 09:00:28;;;;;;;;;;;;;;;23.71;52.79;99026.23;1717376;82;20183;-85
2021/05/25 09:02:53;;;;;;;;;;;;;;;23.75;51.82;99027.17;1720226;82;20183;-84
2021/05/25 09:05:21;;;;;;;;;;;;;;;23.79;52.71;99022.50;1738782;82;20224;-84
2021/05/25 09:07:53;;;;;;;;;;;;;;;23.93;52.07;99015.58;1739316;82;20185;-85
2021/05/25 09:10:37;;;;;;;;;;;;;;;24.09;53.24;99014.33;1723789;82;20176;-84
2021/05/25 09:13:05;;;;;;;;;;;;;;;24.27;53.48;99012.80;1733426;82;20206;-84
2021/05/25 09:15:34;;;;;;;;;;;;;;;24.45;51.59;99008.25;1711586;82;20193;-85
2021/05/25 09:18:06;;;;;;;;;;;;;;;24.59;53.07;99002.64;1741967;82;20169;-84
2021/05/25 09:20:46;;;;;;;;;;;;;;;24.75;51.14;99005.70;1739334;82;20216;-84
2021/05/25 09:23:16;;;;;;;;;;;;;;;24.90;50.08;99010.67;1719825;82;20156;-85
2021/05/25 09:26:04;;;;;;;;;;;;;;;25.07;50.14;99000.76;1723400;82;20189;-84
2021/05/25 09:28:24;;;;;;;;;;;;;;;25.27;51.02;98998.19;1737400;81;20193;-85
2021/05/25 09:30:51;;;;;;;;;;;;;;;25.36;49.92;98998.22;1732642;82;20188;-85
2021/05/25 09:33:20;;;;;;;;;;;;;;;25.35;48.14;98994.39;1747438;81;20216;-84
2021/05/25 09:35:49;;;;;;;;;;;;;;;25.48;48.18;99000.78;1748593;81;20190;-86
2021/05/25 09:38:28;;;;;;;;;;;;;;;25.44;48.20;98986.06;1745699;81;20193;-85
2021/05/25 09:41:00;;;;;;;;;;;;;;;25.62;49.45;98991.58;1743493;80;20161;-85
2021/05/25 09:43:28;;;;;;;;;;;;;;;25.69;47.63;98992.72;1742715;81;20219;-85
2021/05/25 09:46:12;;;;;;;;;;;;;;;25.85;49.39;98985.03;1748490;81;20120;-84
2021/05/25 09:48:47;;;;;;;;;;;;;;;25.98;46.94;98984.31;1750914;80;20185;-86
2021/05/25 09:51:28;;;;;;;;;;;;;;;26.10;47.03;98985.48;1779034;79;20242;-87
2021/05/25 09:53:55;;;;;;;;;;;;;;;26.20;48.13;98987.66;1826072;78;20126;-87
2021/05/25 09:56:30;;;;;;;;;;;;;;;26.37;46.50;98986.11;1814828;79;20181;-85
2021/05/25 09:58:59;;;;;;;;;;;;;;;26.50;45.51;98975.14;1820439;77;20192;-87
2021/05/25 10:01:36;;;;;;;;;;;;;;;26.66;46.18;98972.77;1810595;78;20183;-86
2021/05/25 10:04:14;;;;;;;;;;;;;;;26.79;44.73;98974.61;1832176;78;20174;-86
2021/05/25 10:06:42;;;;;;;;;;;;;;;26.95;45.01;98974.50;1804306;79;20172;-85
2021/05/25 10:09:09;;;;;;;;;;;;;;;27.10;45.58;98974.38;1801213;78;20234;-87
2021/05/25 10:11:38;;;;;;;;;;;;;;;27.23;45.97;98971.85;1818952;78;20115;-87
2021/05/25 10:14:04;;;;;;;;;;;;;;;27.35;44.63;98962.69;1787638;78;20102;-87
2021/05/25 10:16:33;;;;;;;;;;;;;;;27.46;43.15;98966.50;1784795;78;20145;-88
2021/05/25 10:19:13;;;;;;;;;;;;;;;27.55;42.36;98964.75;1826062;77;20225;-86
2021/05/25 10:21:28;;;;;;;;;;;;;;;27.61;42.52;98960.64;1775904;78;20165;-85
2021/05/25 10:23:54;;;;;;;;;;;;;;;27.74;42.46;98955.78;1784655;77;20121;-86
2021/05/25 10:26:21;;;;;;;;;;;;;;;27.84;42.69;98955.20;1819252;78;20149;-86
2021/05/25 10:28:51;;;;;;;;;;;;;;;27.94;42.37;98957.84;1776523;78;20257;-90
2021/05/25 10:31:36;;;;;;;;;;;;;;;28.06;41.36;98958.44;1718871;83;20274;-88
2021/05/25 10:34:13;;;;;;;;;;;;;;;28.25;41.87;98954.27;1735409;82;20236;-83
2021/05/25 10:36:52;;;;;;;;;;;;;;;28.35;41.04;98948.80;1729869;82;20195;-87
2021/05/25 10:39:39;;;;;;;;;;;;;;;28.46;40.58;98944.55;1696528;85;20233;-85
2021/05/25 10:42:28;;;;;;;;;;;;;;;28.63;40.59;98939.33;1733549;82;20634;-85
2021/05/25 10:45:04;;;;;;;;;;;;;;;28.76;40.37;98941.08;1721991;82;20204;-87
2021/05/25 10:47:50;;;;;;;;;;;;;;;28.81;41.15;98938.78;1743513;81;20260;-85
2021/05/25 10:50:24;;;;;;;;;;;;;;;29.01;40.71;98935.37;1709024;82;20202;-83
2021/05/25 10:52:57;;;;;;;;;;;;;;;28.96;36.06;98935.83;1712015;82;20186;-83
2021/05/25 10:55:42;;;;;;;;;;;;;;;29.06;35.08;98934.37;1684619;81;21140;-85
2021/05/25 10:58:28;;;;;;;;;;;;;;;29.22;35.95;98939.48;1727602;81;20144;-87
2021/05/25 11:00:52;;;;;;;;;;;;;;;29.26;34.71;98934.98;1734502;81;20183;-86
2021/05/25 11:03:20;;;;;;;;;;;;;;;29.34;36.26;98936.84;1726211;81;20189;-84
2021/05/25 11:05:50;;;;;;;;;;;;;;;29.46;34.82;98934.20;1729400;81;20197;-85
2021/05/25 11:08:20;;;;;;;;;;;;;;;29.52;35.89;98929.52;1735501;83;20199;-85
2021/05/25 11:10:57;;;;;;;;;;;;;;;29.50;33.62;98932.03;1745679;81;20138;-86
2021/05/25 11:13:27;;;;;;;;;;;;;;;29.70;34.50;98931.23;1737966;81;20199;-87
2021/05/25 11:16:31;;;;;;;;;;;;;;;29.84;34.83;98927.09;1736481;82;20191;-85
2021/05/25 11:19:12;;;;;;;;;;;;;;;29.85;32.87;98924.26;1710032;83;20197;-85
2021/05/25 11:22:13;;;;;;;;;;;;;;;29.83;32.97;98918.23;1757242;81;20146;-86
2021/05/25 11:24:36;;;;;;;;;;;;;;;29.89;33.49;98922.92;1726921;81;20213;-86
2021/05/25 11:27:40;;;;;;;;;;;;;;;29.93;32.49;98931.47;1764356;81;20219;-85
2021/05/25 11:30:11;;;;;;;;;;;;;;;30.01;32.78;98929.30;1741299;81;20136;-86
2021/05/25 11:32:49;;;;;;;;;;;;;;;30.24;33.91;98919.58;1699920;83;20201;-87
2021/05/25 11:35:33;;;;;;;;;;;;;;;30.21;31.80;98925.27;1717904;83;20173;-86
2021/05/25 11:38:05;;;;;;;;;;;;;;;30.32;32.41;98918.73;1699344;85;20198;-86
2021/05/25 11:40:38;;;;;;;;;;;;;;;30.47;32.16;98921.58;1679393;83;20264;-84
2021/05/25 11:43:06;;;;;;;;;;;;;;;30.55;32.08;98924.24;1728282;82;20145;-86
2021/05/25 11:45:34;;;;;;;;;;;;;;;30.46;32.05;98919.41;1699963;83;20168;-86
2021/05/25 11:48:04;;;;;;;;;;;;;;;30.52;32.07;98921.41;1725565;83;20125;-87
2021/05/25 11:50:48;;;;;;;;;;;;;;;30.46;31.36;98917.20;1641078;83;20149;-86
2021/05/25 11:53:16;;;;;;;;;;;;;;;30.73;32.17;98920.00;1723272;83;20168;-86
2021/05/25 11:55:44;;;;;;;;;;;;;;;30.92;30.65;98928.20;1722403;83;20209;-84
2021/05/25 11:58:11;;;;;;;;;;;;;;;30.83;29.78;98927.86;1710647;83;20219;-85
2021/05/25 12:00:37;;;;;;;;;;;;;;;31.02;29.61;98924.81;1721380;83;20181;-86
2021/05/25 12:03:08;;;;;;;;;;;;;;;31.18;29.55;98919.02;1718168;83;20191;-86
2021/05/25 12:05:34;;;;;;;;;;;;;;;31.21;29.20;98919.50;1726629;82;20341;-87
2021/05/25 12:08:04;;;;;;;;;;;;;;;31.24;28.92;98919.17;1717638;83;20166;-87
2021/05/25 12:10:33;;;;;;;;;;;;;;;31.42;29.44;98912.70;1719163;83;20136;-87
2021/05/25 12:13:04;;;;;;;;;;;;;;;31.41;28.40;98923.92;1717227;82;20452;-86
2021/05/25 12:15:31;;;;;;;;;;;;;;;31.49;27.86;98918.53;1722825;82;20201;-86
2021/05/25 12:17:59;;;;;;;;;;;;;;;31.64;28.36;98915.94;1710834;83;20227;-86
2021/05/25 12:20:46;;;;;;;;;;;;;;;31.85;27.73;98923.36;1721520;82;20222;-84
2021/05/25 12:23:18;;;;;;;;;;;;;;;31.86;27.52;98910.75;1713332;82;20217;-83
2021/05/25 12:25:55;;;;;;;;;;;;;;;32.04;27.47;98914.50;1723955;82;20179;-84
2021/05/25 12:28:23;;;;;;;;;;;;;;;32.43;27.94;98921.52;1717979;83;20159;-86
2021/05/25 12:30:55;;;;;;;;;;;;;;;32.58;26.52;98915.68;1706551;83;20256;-87
2021/05/25 12:33:34;;;;;;;;;;;;;;;32.76;26.01;98918.52;1709512;83;20222;-85
2021/05/25 12:36:12;;;;;;;;;;;;;;;33.15;26.55;98914.69;1707863;83;20179;-86
2021/05/25 12:38:40;;;;;;;;;;;;;;;33.57;24.82;98915.30;1689291;84;20096;-86
2021/05/25 12:41:09;;;;;;;;;;;;;;;34.10;26.20;98910.11;1696395;82;20143;-85
2021/05/25 12:43:37;;;;;;;;;;;;;;;34.44;24.02;98909.34;1744422;80;20142;-84
2021/05/25 12:46:23;;;;;;;;;;;;;;;34.57;23.38;98916.19;1729209;81;20154;-85
2021/05/25 12:48:50;;;;;;;;;;;;;;;34.68;23.77;98916.70;1737465;79;20160;-86
2021/05/25 12:51:21;;;;;;;;;;;;;;;34.52;24.05;98911.06;1733309;81;20179;-83
2021/05/25 12:54:00;;;;;;;;;;;;;;;34.64;23.73;98915.73;1701900;80;20142;-81
2021/05/25 12:56:27;;;;;;;;;;;;;;;34.82;22.20;98910.36;1665367;83;20297;-82
2021/05/25 12:58:57;;;;;;;;;;;;;;;34.91;22.70;98903.74;1696418;79;21548;-83
2021/05/25 13:01:32;;;;;;;;;;;;;;;35.06;22.17;98912.55;1691894;83;20137;-82